Time,TemperatureF,DewpointF,PressureIn,WindDirection,WindDirectionDegrees,WindSpeedMPH,WindSpeedGustMPH,Humidity,HourlyPrecipIn,Conditions,Clouds,dailyrainin,SoftwareType,DateUTC
2013-06-27 00:01:00,73.6,56.8,31.03,NW,325,0.0,4.0,56,-99.99,,,0.00,meteohub,2013-06-27 04:01:00,
2013-06-27 00:02:00,73.6,56.8,31.03,NW,325,0.0,4.0,56,-99.99,,,0.00,meteohub,2013-06-27 04:02:00,
2013-06-27 00:04:00,73.6,56.8,31.03,NW,325,0.0,4.0,56,-99.99,,,0.00,meteohub,2013-06-27 04:04:00,
2013-06-27 00:06:00,73.6,56.8,31.03,NW,325,0.0,4.0,56,-99.99,,,0.00,meteohub,2013-06-27 04:06:00,
2013-06-27 00:11:00,73.6,56.8,31.03,NW,325,0.0,4.0,56,-99.99,,,0.00,meteohub,2013-06-27 04:11:00,
2013-06-27 00:16:00,73.4,56.7,31.03,NW,325,0.0,0.0,56,-99.99,,,0.00,meteohub,2013-06-27 04:16:00,
2013-06-27 00:22:00,73.6,56.8,31.03,NW,325,0.0,0.0,56,-99.99,,,0.00,meteohub,2013-06-27 04:22:00,
2013-06-27 00:27:00,73.4,56.7,31.03,NW,325,0.0,0.0,56,-99.99,,,0.00,meteohub,2013-06-27 04:27:00,
2013-06-27 00:32:00,73.4,56.7,31.03,NW,325,3.0,0.0,56,-99.99,,,0.00,meteohub,2013-06-27 04:32:00,
2013-06-27 00:37:00,73.4,56.7,31.03,NW,325,3.0,0.0,56,-99.99,,,0.00,meteohub,2013-06-27 04:37:00,
2013-06-27 00:42:00,73.4,56.7,31.03,NW,325,0.0,0.0,56,-99.99,,,0.00,meteohub,2013-06-27 04:42:00,
2013-06-27 00:47:00,73.4,56.7,31.03,NW,325,0.0,4.0,56,-99.99,,,0.00,meteohub,2013-06-27 04:47:00,
2013-06-27 00:52:00,73.4,56.7,31.03,NW,325,0.0,4.0,56,-99.99,,,0.00,meteohub,2013-06-27 04:52:00,
2013-06-27 00:57:00,73.4,56.7,31.03,NW,325,0.0,3.0,56,-99.99,,,0.00,meteohub,2013-06-27 04:57:00,
2013-06-27 01:02:00,73.4,57.2,31.03,NW,325,0.0,3.0,57,-99.99,,,0.00,meteohub,2013-06-27 05:02:00,
2013-06-27 01:07:00,73.4,56.7,31.03,NW,325,0.0,3.0,56,-99.99,,,0.00,meteohub,2013-06-27 05:07:00,
2013-06-27 01:12:00,73.2,57.0,31.03,NW,325,0.0,0.0,57,-99.99,,,0.00,meteohub,2013-06-27 05:12:00,
2013-06-27 01:17:00,73.0,56.8,31.03,NW,325,0.0,0.0,57,-99.99,,,0.00,meteohub,2013-06-27 05:17:00,
2013-06-27 01:22:00,73.0,56.8,31.03,NW,325,0.0,0.0,57,-99.99,,,0.00,meteohub,2013-06-27 05:22:00,
2013-06-27 01:27:00,72.9,56.7,31.03,NW,325,0.0,0.0,57,-99.99,,,0.00,meteohub,2013-06-27 05:27:00,
2013-06-27 01:32:00,72.9,56.7,31.03,NW,325,0.0,0.0,57,-99.99,,,0.00,meteohub,2013-06-27 05:32:00,
2013-06-27 01:37:00,72.9,56.7,31.03,NW,325,0.0,0.0,57,-99.99,,,0.00,meteohub,2013-06-27 05:37:00,
2013-06-27 01:42:00,72.9,56.7,31.03,NW,325,0.0,0.0,57,-99.99,,,0.00,meteohub,2013-06-27 05:42:00,
2013-06-27 01:47:00,73.0,57.4,31.03,NW,325,0.0,0.0,58,-99.99,,,0.00,meteohub,2013-06-27 05:47:00,
2013-06-27 01:52:00,73.0,57.4,31.03,NW,325,0.0,0.0,58,-99.99,,,0.00,meteohub,2013-06-27 05:52:00,
2013-06-27 01:57:00,73.0,57.4,31.03,NW,325,0.0,0.0,58,-99.99,,,0.00,meteohub,2013-06-27 05:57:00,
2013-06-27 02:02:00,73.0,57.4,31.03,NW,325,0.0,0.0,58,-99.99,,,0.00,meteohub,2013-06-27 06:02:00,
2013-06-27 02:07:00,73.0,57.4,31.03,NW,325,0.0,0.0,58,-99.99,,,0.00,meteohub,2013-06-27 06:07:00,
2013-06-27 02:12:00,73.0,57.4,31.03,NW,325,0.0,0.0,58,-99.99,,,0.00,meteohub,2013-06-27 06:12:00,
2013-06-27 02:17:00,73.0,57.4,31.03,North,357,0.0,0.0,58,-99.99,,,0.00,meteohub,2013-06-27 06:17:00,
2013-06-27 02:22:00,73.0,57.4,31.03,North,357,0.0,3.0,58,-99.99,,,0.00,meteohub,2013-06-27 06:22:00,
2013-06-27 02:28:00,73.0,57.4,31.03,North,357,0.0,3.0,58,-99.99,,,0.00,meteohub,2013-06-27 06:28:00,
2013-06-27 02:33:00,72.9,57.2,31.03,North,357,0.0,3.0,58,-99.99,,,0.00,meteohub,2013-06-27 06:33:00,
2013-06-27 02:38:00,72.9,57.2,31.03,NE,51,4.0,4.0,58,-99.99,,,0.00,meteohub,2013-06-27 06:38:00,
2013-06-27 02:43:00,73.4,59.2,31.03,ENE,59,5.0,5.0,61,-99.99,,,0.00,meteohub,2013-06-27 06:43:00,
2013-06-27 02:49:00,73.8,59.9,31.03,East,81,5.0,5.0,62,-99.99,,,0.00,meteohub,2013-06-27 06:49:00,
2013-06-27 02:54:00,73.9,60.6,31.03,East,83,3.0,5.0,63,-99.99,,,0.00,meteohub,2013-06-27 06:54:00,
2013-06-27 02:59:00,73.8,60.4,31.03,ENE,69,5.0,6.0,63,-99.99,,,0.00,meteohub,2013-06-27 06:59:00,
2013-06-27 03:05:00,73.8,60.4,31.03,NE,53,4.0,6.0,63,-99.99,,,0.00,meteohub,2013-06-27 07:05:00,
2013-06-27 03:10:00,73.8,60.4,31.03,ENE,58,5.0,5.0,63,-99.99,,,0.00,meteohub,2013-06-27 07:10:00,
2013-06-27 03:15:00,73.8,60.4,31.03,NE,56,4.0,5.0,63,-99.99,,,0.00,meteohub,2013-06-27 07:15:00,
2013-06-27 03:21:00,73.8,60.4,31.03,NE,51,4.0,5.0,63,-99.99,,,0.00,meteohub,2013-06-27 07:21:00,
2013-06-27 03:26:00,73.6,60.3,31.03,NNE,19,0.0,6.0,63,-99.99,,,0.00,meteohub,2013-06-27 07:26:00,
2013-06-27 03:31:00,73.4,60.1,31.03,NNE,19,0.0,6.0,63,-99.99,,,0.00,meteohub,2013-06-27 07:31:00,
2013-06-27 03:36:00,73.4,60.1,31.03,NNE,19,0.0,6.0,63,-99.99,,,0.00,meteohub,2013-06-27 07:36:00,
2013-06-27 03:42:00,73.4,60.1,31.03,North,357,0.0,4.0,63,-99.99,,,0.00,meteohub,2013-06-27 07:42:00,
2013-06-27 03:47:00,73.4,60.1,31.03,North,353,0.0,0.0,63,-99.99,,,0.00,meteohub,2013-06-27 07:47:00,
2013-06-27 03:52:00,73.4,60.1,31.03,NNW,343,0.0,0.0,63,-99.99,,,0.00,meteohub,2013-06-27 07:52:00,
2013-06-27 03:57:00,73.2,59.9,31.03,NNW,343,4.0,4.0,63,-99.99,,,0.00,meteohub,2013-06-27 07:57:00,
2013-06-27 04:02:00,73.2,59.9,31.03,NNE,28,3.0,4.0,63,-99.99,,,0.00,meteohub,2013-06-27 08:02:00,
2013-06-27 04:07:00,73.2,59.9,31.03,NNE,28,2.0,4.0,63,-99.99,,,0.00,meteohub,2013-06-27 08:07:00,
2013-06-27 04:12:00,73.0,59.7,31.03,NNE,18,4.0,4.0,63,-99.99,,,0.00,meteohub,2013-06-27 08:12:00,
2013-06-27 04:17:00,73.0,59.7,31.03,North,357,2.0,5.0,63,-99.99,,,0.00,meteohub,2013-06-27 08:17:00,
2013-06-27 04:23:00,73.0,59.7,31.03,North,9,3.0,5.0,63,-99.99,,,0.00,meteohub,2013-06-27 08:23:00,
2013-06-27 04:28:00,73.0,59.7,31.03,NNW,342,0.0,5.0,63,-99.99,,,0.00,meteohub,2013-06-27 08:28:00,
2013-06-27 04:33:00,73.2,60.3,31.03,NW,320,4.0,5.0,64,-99.99,,,0.00,meteohub,2013-06-27 08:33:00,
2013-06-27 04:39:00,73.0,59.7,31.03,NW,320,3.0,5.0,63,-99.99,,,0.00,meteohub,2013-06-27 08:39:00,
2013-06-27 04:44:00,73.0,59.7,31.03,NW,309,4.0,5.0,63,-99.99,,,0.00,meteohub,2013-06-27 08:44:00,
2013-06-27 04:49:00,72.9,59.5,31.03,NW,324,4.0,5.0,63,-99.99,,,0.00,meteohub,2013-06-27 08:49:00,
2013-06-27 04:54:00,72.7,59.4,31.03,NNW,327,6.0,6.0,63,-99.99,,,0.00,meteohub,2013-06-27 08:54:00,
2013-06-27 05:00:00,72.5,59.2,31.03,North,353,5.0,6.0,63,-99.99,,,0.00,meteohub,2013-06-27 09:00:00,
2013-06-27 05:05:00,72.1,58.8,31.03,NNW,327,6.0,6.0,63,-99.99,,,0.00,meteohub,2013-06-27 09:05:00,
2013-06-27 05:11:00,72.0,58.6,31.03,NW,318,3.0,8.0,63,-99.99,,,0.00,meteohub,2013-06-27 09:11:00,
2013-06-27 05:16:00,71.8,58.5,31.03,NNW,338,6.0,8.0,63,-99.99,,,0.00,meteohub,2013-06-27 09:16:00,
2013-06-27 05:21:00,71.6,58.3,31.03,NW,326,4.0,7.0,63,-99.99,,,0.00,meteohub,2013-06-27 09:21:00,
2013-06-27 05:27:00,71.4,58.1,31.03,North,350,3.0,7.0,63,-99.99,,,0.00,meteohub,2013-06-27 09:27:00,
2013-06-27 05:32:00,71.2,57.9,31.03,NNW,346,4.0,7.0,63,-99.99,,,0.00,meteohub,2013-06-27 09:32:00,
2013-06-27 05:37:00,71.2,57.9,31.03,NW,310,6.0,7.0,63,-99.99,,,0.00,meteohub,2013-06-27 09:37:00,
2013-06-27 05:42:00,71.2,57.9,31.03,NNW,338,3.0,8.0,63,-99.99,,,0.00,meteohub,2013-06-27 09:42:00,
2013-06-27 05:48:00,71.2,58.5,31.03,North,357,3.0,8.0,64,-99.99,,,0.00,meteohub,2013-06-27 09:48:00,
2013-06-27 05:53:00,71.4,58.6,31.03,North,357,3.0,8.0,64,-99.99,,,0.00,meteohub,2013-06-27 09:53:00,
2013-06-27 05:58:00,71.4,58.6,31.03,North,357,5.0,8.0,64,-99.99,,,0.00,meteohub,2013-06-27 09:58:00,
2013-06-27 06:04:00,71.2,57.9,31.03,NNW,346,6.0,6.0,63,-99.99,,,0.00,meteohub,2013-06-27 10:04:00,
2013-06-27 06:09:00,71.2,57.9,31.03,North,357,8.0,8.0,63,-99.99,,,0.00,meteohub,2013-06-27 10:09:00,
2013-06-27 06:14:00,71.1,57.7,31.03,North,0,5.0,6.0,63,-99.99,,,0.00,meteohub,2013-06-27 10:14:00,
2013-06-27 06:20:00,71.1,57.7,31.03,North,4,6.0,8.0,63,-99.99,,,0.00,meteohub,2013-06-27 10:20:00,
2013-06-27 06:25:00,71.1,58.3,31.03,North,350,6.0,8.0,64,-99.99,,,0.00,meteohub,2013-06-27 10:25:00,
2013-06-27 06:31:00,71.2,58.5,31.03,North,353,5.0,8.0,64,-99.99,,,0.00,meteohub,2013-06-27 10:31:00,
2013-06-27 06:36:00,71.1,57.7,31.03,North,11,8.0,8.0,63,-99.99,,,0.00,meteohub,2013-06-27 10:36:00,
2013-06-27 06:41:00,70.9,57.7,31.03,North,2,6.0,8.0,63,-99.99,,,0.00,meteohub,2013-06-27 10:41:00,
2013-06-27 06:47:00,70.9,57.7,31.03,North,1,4.0,8.0,63,-99.99,,,0.00,meteohub,2013-06-27 10:47:00,
2013-06-27 06:52:00,70.7,57.0,31.03,North,357,8.0,8.0,62,-99.99,,,0.00,meteohub,2013-06-27 10:52:00,
2013-06-27 06:57:00,70.5,57.4,31.03,North,353,6.0,8.0,63,-99.99,,,0.00,meteohub,2013-06-27 10:57:00,
2013-06-27 07:02:00,70.5,57.7,31.03,North,2,6.0,8.0,64,-99.99,,,0.00,meteohub,2013-06-27 11:02:00,
2013-06-27 07:07:00,70.5,57.7,31.03,NNE,27,6.0,10.0,64,-99.99,,,0.00,meteohub,2013-06-27 11:07:00,
2013-06-27 07:12:00,70.5,57.7,31.03,North,357,6.0,10.0,64,-99.99,,,0.00,meteohub,2013-06-27 11:12:00,
2013-06-27 07:18:00,70.3,58.1,31.03,NE,39,9.0,10.0,65,-99.99,,,0.00,meteohub,2013-06-27 11:18:00,
2013-06-27 07:23:00,70.2,57.9,31.03,North,1,5.0,11.0,65,-99.99,,,0.00,meteohub,2013-06-27 11:23:00,
2013-06-27 07:28:00,70.0,58.1,31.03,NNE,23,8.0,11.0,66,-99.99,,,0.00,meteohub,2013-06-27 11:28:00,
2013-06-27 07:34:00,70.0,58.1,31.03,North,10,6.0,11.0,66,-99.99,,,0.00,meteohub,2013-06-27 11:34:00,
2013-06-27 07:39:00,69.8,58.3,31.03,NNE,20,8.0,11.0,67,-99.99,,,0.00,meteohub,2013-06-27 11:39:00,
2013-06-27 07:44:00,69.6,58.1,31.03,North,3,9.0,11.0,67,-99.99,,,0.00,meteohub,2013-06-27 11:44:00,
2013-06-27 07:50:00,69.8,58.8,31.03,North,10,6.0,11.0,68,-99.99,,,0.00,meteohub,2013-06-27 11:50:00,
2013-06-27 07:55:00,69.8,58.8,31.03,North,353,8.0,11.0,68,-99.99,,,0.00,meteohub,2013-06-27 11:55:00,
2013-06-27 08:00:00,69.8,58.8,31.03,North,357,10.0,11.0,68,-99.99,,,0.00,meteohub,2013-06-27 12:00:00,
2013-06-27 08:06:00,69.8,58.8,31.03,North,353,10.0,11.0,68,-99.99,,,0.00,meteohub,2013-06-27 12:06:00,
2013-06-27 08:11:00,70.0,59.0,31.03,North,357,6.0,11.0,68,-99.99,,,0.00,meteohub,2013-06-27 12:11:00,
2013-06-27 08:16:00,70.2,59.5,31.03,North,357,5.0,11.0,69,-99.99,,,0.00,meteohub,2013-06-27 12:16:00,
2013-06-27 08:21:00,70.2,59.5,31.03,North,9,5.0,10.0,69,-99.99,,,0.00,meteohub,2013-06-27 12:21:00,
2013-06-27 08:27:00,70.2,59.5,31.03,North,4,6.0,10.0,69,-99.99,,,0.00,meteohub,2013-06-27 12:27:00,
2013-06-27 08:32:00,70.3,59.7,31.03,NNW,345,4.0,10.0,69,-99.99,,,0.00,meteohub,2013-06-27 12:32:00,
2013-06-27 08:37:00,70.5,59.9,31.03,North,3,5.0,9.0,69,-99.99,,,0.00,meteohub,2013-06-27 12:37:00,
2013-06-27 08:42:00,70.5,59.9,31.03,North,5,6.0,9.0,69,-99.99,,,0.00,meteohub,2013-06-27 12:42:00,
2013-06-27 08:48:00,70.5,59.4,31.03,North,357,8.0,9.0,68,-99.99,,,0.00,meteohub,2013-06-27 12:48:00,
2013-06-27 08:53:00,70.7,59.5,31.03,North,353,6.0,11.0,68,-99.99,,,0.00,meteohub,2013-06-27 12:53:00,
2013-06-27 08:58:00,70.7,60.1,31.03,NW,322,4.0,11.0,69,-99.99,,,0.00,meteohub,2013-06-27 12:58:00,
2013-06-27 09:04:00,70.9,59.7,31.03,North,357,5.0,11.0,68,-99.99,,,0.00,meteohub,2013-06-27 13:04:00,
2013-06-27 09:09:00,70.9,59.7,31.03,North,0,6.0,11.0,68,-99.99,,,0.00,meteohub,2013-06-27 13:09:00,
2013-06-27 09:14:00,70.9,59.7,31.03,NNW,344,4.0,11.0,68,-99.99,,,0.00,meteohub,2013-06-27 13:14:00,
2013-06-27 09:20:00,71.1,59.9,31.03,North,3,4.0,11.0,68,-99.99,,,0.00,meteohub,2013-06-27 13:20:00,
2013-06-27 09:25:00,71.2,60.1,31.03,North,357,5.0,11.0,68,-99.99,,,0.00,meteohub,2013-06-27 13:25:00,
2013-06-27 09:30:00,71.6,60.4,31.03,North,2,3.0,11.0,68,-99.99,,,0.00,meteohub,2013-06-27 13:30:00,
2013-06-27 09:36:00,71.8,59.7,31.03,NNW,343,4.0,11.0,66,-99.99,,,0.00,meteohub,2013-06-27 13:36:00,
2013-06-27 09:41:00,72.0,59.9,31.03,North,357,5.0,11.0,66,-99.99,,,0.00,meteohub,2013-06-27 13:41:00,
2013-06-27 09:46:00,71.8,58.1,31.03,NNE,17,8.0,11.0,62,-99.99,,,0.00,meteohub,2013-06-27 13:46:00,
2013-06-27 09:51:00,71.8,57.2,31.03,NNE,19,9.0,9.0,60,-99.99,,,0.00,meteohub,2013-06-27 13:51:00,
2013-06-27 09:57:00,71.8,56.1,31.03,North,4,5.0,9.0,58,-99.99,,,0.00,meteohub,2013-06-27 13:57:00,
2013-06-27 10:02:00,72.3,57.7,31.03,North,10,5.0,9.0,60,-99.99,,,0.00,meteohub,2013-06-27 14:02:00,
2013-06-27 10:07:00,72.5,55.9,31.03,North,11,7.0,10.0,56,-99.99,,,0.00,meteohub,2013-06-27 14:07:00,
2013-06-27 10:12:00,72.1,54.1,31.03,NNE,15,6.0,10.0,53,-99.99,,,0.00,meteohub,2013-06-27 14:12:00,
2013-06-27 10:17:00,72.5,55.4,31.03,WNW,292,3.0,10.0,55,-99.99,,,0.00,meteohub,2013-06-27 14:17:00,
2013-06-27 10:22:00,72.9,56.3,31.03,North,357,6.0,9.0,56,-99.99,,,0.00,meteohub,2013-06-27 14:22:00,
2013-06-27 10:27:00,73.0,56.5,31.03,North,357,5.0,9.0,56,-99.99,,,0.00,meteohub,2013-06-27 14:27:00,
2013-06-27 10:32:00,73.2,56.1,31.03,North,4,5.0,9.0,55,-99.99,,,0.00,meteohub,2013-06-27 14:32:00,
2013-06-27 10:37:00,73.8,56.7,31.03,NW,314,5.0,9.0,55,-99.99,,,0.00,meteohub,2013-06-27 14:37:00,
2013-06-27 10:42:00,73.9,55.2,31.03,North,5,6.0,9.0,52,-99.99,,,0.00,meteohub,2013-06-27 14:42:00,
2013-06-27 10:47:00,74.1,54.9,31.03,NNW,327,10.0,10.0,51,-99.99,,,0.00,meteohub,2013-06-27 14:47:00,
2013-06-27 10:53:00,74.5,55.2,31.03,North,0,4.0,9.0,51,-99.99,,,0.00,meteohub,2013-06-27 14:53:00,
2013-06-27 10:58:00,74.8,54.3,31.03,NW,322,5.0,10.0,49,-99.99,,,0.00,meteohub,2013-06-27 14:58:00,
2013-06-27 11:03:00,75.0,53.4,31.03,NW,313,6.0,10.0,47,-99.99,,,0.00,meteohub,2013-06-27 15:03:00,
2013-06-27 11:09:00,75.4,53.2,31.03,North,4,7.0,10.0,46,-99.99,,,0.00,meteohub,2013-06-27 15:09:00,
2013-06-27 11:14:00,75.4,52.0,31.03,NW,317,5.0,9.0,44,-99.99,,,0.00,meteohub,2013-06-27 15:14:00,
2013-06-27 11:19:00,75.9,52.5,31.03,NW,310,6.0,9.0,44,-99.99,,,0.00,meteohub,2013-06-27 15:19:00,
2013-06-27 11:25:00,76.1,50.0,31.03,NNE,22,7.0,9.0,40,-99.99,,,0.00,meteohub,2013-06-27 15:25:00,
2013-06-27 11:30:00,76.1,48.0,31.03,NNE,33,12.0,12.0,37,-99.99,,,0.00,meteohub,2013-06-27 15:30:00,
2013-06-27 11:35:00,75.9,49.1,31.03,NNE,25,13.0,13.0,39,-99.99,,,0.00,meteohub,2013-06-27 15:35:00,
2013-06-27 11:41:00,75.2,47.8,31.03,NNE,27,13.0,13.0,38,-99.99,,,0.00,meteohub,2013-06-27 15:41:00,
2013-06-27 11:46:00,74.7,48.7,31.03,NE,39,13.0,13.0,40,-99.99,,,0.00,meteohub,2013-06-27 15:46:00,
2013-06-27 11:51:00,74.1,47.7,31.03,NE,49,11.0,15.0,39,-99.99,,,0.00,meteohub,2013-06-27 15:51:00,
2013-06-27 11:57:00,73.9,48.7,31.03,NNE,28,14.0,15.0,41,-99.99,,,0.00,meteohub,2013-06-27 15:57:00,
2013-06-27 12:02:00,73.9,48.7,31.00,NNE,31,13.0,15.0,41,-99.99,,,0.00,meteohub,2013-06-27 16:02:00,
2013-06-27 12:07:00,73.0,48.0,31.00,NE,48,15.0,16.0,41,-99.99,,,0.00,meteohub,2013-06-27 16:07:00,
2013-06-27 12:12:00,72.3,48.6,31.00,NNE,29,13.0,16.0,43,-99.99,,,0.00,meteohub,2013-06-27 16:12:00,
2013-06-27 12:17:00,72.0,49.5,31.00,North,9,10.0,16.0,45,-99.99,,,0.00,meteohub,2013-06-27 16:17:00,
2013-06-27 12:22:00,71.8,48.7,31.00,NE,40,11.0,16.0,44,-99.99,,,0.00,meteohub,2013-06-27 16:22:00,
2013-06-27 12:23:00,71.6,49.1,31.00,ENE,64,11.0,15.0,45,-99.99,,,0.00,meteohub,2013-06-27 16:23:00,
2013-06-27 12:28:00,71.4,48.9,31.00,NNE,28,11.0,15.0,45,-99.99,,,0.00,meteohub,2013-06-27 16:28:00,
2013-06-27 12:33:00,70.9,49.1,31.00,NE,48,10.0,15.0,46,-99.99,,,0.00,meteohub,2013-06-27 16:33:00,
2013-06-27 12:39:00,70.7,51.1,31.00,NE,38,9.0,15.0,50,-99.99,,,0.00,meteohub,2013-06-27 16:39:00,
2013-06-27 12:44:00,70.5,51.4,31.00,NE,56,8.0,15.0,51,-99.99,,,0.00,meteohub,2013-06-27 16:44:00,
2013-06-27 12:49:00,70.5,50.9,31.00,NE,34,8.0,13.0,50,-99.99,,,0.00,meteohub,2013-06-27 16:49:00,
2013-06-27 12:55:00,70.7,50.5,31.00,NNE,27,5.0,13.0,49,-99.99,,,0.00,meteohub,2013-06-27 16:55:00,
2013-06-27 13:00:00,70.7,50.5,31.00,NNE,17,8.0,13.0,49,-99.99,,,0.00,meteohub,2013-06-27 17:00:00,
2013-06-27 13:05:00,70.9,50.7,31.00,NNE,12,6.0,13.0,49,-99.99,,,0.00,meteohub,2013-06-27 17:05:00,
2013-06-27 13:10:00,70.9,50.7,31.00,NNE,32,6.0,9.0,49,-99.99,,,0.00,meteohub,2013-06-27 17:10:00,
2013-06-27 13:16:00,71.2,51.6,30.97,NNE,33,6.0,9.0,50,-99.99,,,0.00,meteohub,2013-06-27 17:16:00,
2013-06-27 13:21:00,71.2,51.1,30.97,NE,49,6.0,8.0,49,-99.99,,,0.00,meteohub,2013-06-27 17:21:00,
2013-06-27 13:26:00,71.1,50.9,30.97,North,357,9.0,9.0,49,-99.99,,,0.00,meteohub,2013-06-27 17:26:00,
2013-06-27 13:32:00,71.1,51.4,30.97,NNE,15,8.0,8.0,50,-99.99,,,0.00,meteohub,2013-06-27 17:32:00,
2013-06-27 13:37:00,70.9,51.8,30.97,NNE,30,8.0,8.0,51,-99.99,,,0.00,meteohub,2013-06-27 17:37:00,
2013-06-27 13:42:00,70.9,51.8,30.97,NNE,15,9.0,9.0,51,-99.99,,,0.00,meteohub,2013-06-27 17:42:00,
2013-06-27 13:47:00,71.1,52.5,30.97,NNE,16,6.0,9.0,52,-99.99,,,0.00,meteohub,2013-06-27 17:47:00,
2013-06-27 13:53:00,71.2,52.7,30.97,NNE,14,6.0,9.0,52,-99.99,,,0.00,meteohub,2013-06-27 17:53:00,
2013-06-27 13:58:00,71.4,52.9,30.97,North,353,6.0,10.0,52,-99.99,,,0.00,meteohub,2013-06-27 17:58:00,
2013-06-27 14:03:00,71.4,52.9,30.97,North,6,6.0,10.0,52,-99.99,,,0.00,meteohub,2013-06-27 18:03:00,
2013-06-27 14:09:00,71.4,53.4,30.97,NNW,336,6.0,10.0,53,-99.99,,,0.00,meteohub,2013-06-27 18:09:00,
2013-06-27 14:14:00,71.8,54.3,30.97,North,357,6.0,9.0,54,-99.99,,,0.00,meteohub,2013-06-27 18:14:00,
2013-06-27 14:19:00,72.1,54.5,31.00,North,8,5.0,9.0,54,-99.99,,,0.00,meteohub,2013-06-27 18:19:00,
2013-06-27 14:25:00,72.3,55.2,31.00,NE,45,9.0,9.0,55,-99.99,,,0.00,meteohub,2013-06-27 18:25:00,
2013-06-27 14:30:00,72.3,55.2,31.00,NE,39,8.0,9.0,55,-99.99,,,0.00,meteohub,2013-06-27 18:30:00,
2013-06-27 14:35:00,72.3,56.3,31.00,NE,35,11.0,11.0,57,-99.99,,,0.00,meteohub,2013-06-27 18:35:00,
2013-06-27 14:41:00,72.0,55.4,31.00,NNE,15,6.0,9.0,56,-99.99,,,0.00,meteohub,2013-06-27 18:41:00,
2013-06-27 14:46:00,72.1,56.1,31.00,NNE,15,6.0,9.0,57,-99.99,,,0.00,meteohub,2013-06-27 18:46:00,
2013-06-27 14:51:00,72.3,56.7,31.00,NE,34,5.0,11.0,58,-99.99,,,0.00,meteohub,2013-06-27 18:51:00,
2013-06-27 14:57:00,72.3,56.7,31.00,NNE,21,8.0,11.0,58,-99.99,,,0.00,meteohub,2013-06-27 18:57:00,
2013-06-27 15:02:00,72.1,57.6,30.97,NE,35,5.0,11.0,60,-99.99,,,0.00,meteohub,2013-06-27 19:02:00,
2013-06-27 15:07:00,72.1,57.9,30.97,NE,35,6.0,9.0,61,-99.99,,,0.00,meteohub,2013-06-27 19:07:00,
2013-06-27 15:12:00,72.1,58.5,30.97,North,4,5.0,9.0,62,-99.99,,,0.00,meteohub,2013-06-27 19:12:00,
2013-06-27 15:17:00,72.5,58.8,30.97,North,3,6.0,9.0,62,-99.99,,,0.00,meteohub,2013-06-27 19:17:00,
2013-06-27 15:22:00,72.7,58.8,30.97,NNE,22,5.0,8.0,62,-99.99,,,0.00,meteohub,2013-06-27 19:22:00,
2013-06-27 15:28:00,73.0,59.7,30.97,NNE,19,4.0,8.0,63,-99.99,,,0.00,meteohub,2013-06-27 19:28:00,
2013-06-27 15:33:00,73.0,58.8,30.97,NNE,16,9.0,9.0,61,-99.99,,,0.00,meteohub,2013-06-27 19:33:00,
2013-06-27 15:38:00,73.2,59.0,30.97,NNE,32,5.0,9.0,61,-99.99,,,0.00,meteohub,2013-06-27 19:38:00,
2013-06-27 15:43:00,73.2,58.5,30.97,NE,36,6.0,9.0,60,-99.99,,,0.00,meteohub,2013-06-27 19:43:00,
2013-06-27 15:49:00,73.0,57.9,30.97,NE,44,6.0,9.0,59,-99.99,,,0.00,meteohub,2013-06-27 19:49:00,
2013-06-27 15:54:00,72.7,56.1,30.97,ENE,65,6.0,9.0,56,-99.99,,,0.00,meteohub,2013-06-27 19:54:00,
2013-06-27 15:59:00,72.3,54.7,30.97,ENE,72,6.0,9.0,54,-99.99,,,0.00,meteohub,2013-06-27 19:59:00,
2013-06-27 16:05:00,72.3,55.8,30.97,NE,50,6.0,8.0,56,-99.99,,,0.00,meteohub,2013-06-27 20:05:00,
2013-06-27 16:10:00,72.3,55.8,30.97,NE,40,4.0,8.0,56,-99.99,,,0.00,meteohub,2013-06-27 20:10:00,
2013-06-27 16:16:00,72.3,55.2,30.97,NE,52,3.0,8.0,55,-99.99,,,0.00,meteohub,2013-06-27 20:16:00,
2013-06-27 16:21:00,72.1,55.0,30.97,ENE,69,4.0,8.0,55,-99.99,,,0.00,meteohub,2013-06-27 20:21:00,
2013-06-27 16:26:00,72.1,55.0,30.97,ENE,62,3.0,6.0,55,-99.99,,,0.00,meteohub,2013-06-27 20:26:00,
2013-06-27 16:31:00,72.3,55.2,30.97,NE,36,4.0,6.0,55,-99.99,,,0.00,meteohub,2013-06-27 20:31:00,
2013-06-27 16:37:00,72.3,55.2,30.97,NE,36,4.0,6.0,55,-99.99,,,0.00,meteohub,2013-06-27 20:37:00,
2013-06-27 16:42:00,72.5,54.9,30.97,NNE,30,5.0,6.0,54,-99.99,,,0.00,meteohub,2013-06-27 20:42:00,
2013-06-27 16:49:00,72.5,54.9,30.97,NNE,33,5.0,6.0,54,-99.99,,,0.00,meteohub,2013-06-27 20:49:00,
2013-06-27 16:54:00,72.1,53.1,30.97,NE,39,4.0,6.0,51,-99.99,,,0.00,meteohub,2013-06-27 20:54:00,
2013-06-27 17:00:00,72.1,53.6,30.97,NE,45,4.0,6.0,52,-99.99,,,0.00,meteohub,2013-06-27 21:00:00,
2013-06-27 17:05:00,72.0,54.0,30.97,NE,41,4.0,5.0,53,-99.99,,,0.00,meteohub,2013-06-27 21:05:00,
2013-06-27 17:12:00,72.1,54.5,30.97,NE,41,4.0,5.0,54,-99.99,,,0.00,meteohub,2013-06-27 21:12:00,
2013-06-27 17:17:00,72.1,54.1,30.97,NE,47,4.0,5.0,53,-99.99,,,0.00,meteohub,2013-06-27 21:17:00,
2013-06-27 17:23:00,72.0,54.3,30.97,NE,54,4.0,6.0,54,-99.99,,,0.00,meteohub,2013-06-27 21:23:00,
2013-06-27 17:28:00,71.8,54.3,30.97,NNE,27,5.0,6.0,54,-99.99,,,0.00,meteohub,2013-06-27 21:28:00,
2013-06-27 17:33:00,71.8,54.7,30.97,NE,39,4.0,6.0,55,-99.99,,,0.00,meteohub,2013-06-27 21:33:00,
2013-06-27 17:39:00,71.8,55.2,30.97,NNE,30,4.0,5.0,56,-99.99,,,0.00,meteohub,2013-06-27 21:39:00,
2013-06-27 17:44:00,71.8,55.8,30.97,NNE,23,5.0,5.0,57,-99.99,,,0.00,meteohub,2013-06-27 21:44:00,
2013-06-27 17:50:00,71.8,56.1,30.97,NNE,29,5.0,6.0,58,-99.99,,,0.00,meteohub,2013-06-27 21:50:00,
2013-06-27 17:55:00,71.8,56.1,30.97,NNE,24,4.0,6.0,58,-99.99,,,0.00,meteohub,2013-06-27 21:55:00,
2013-06-27 18:01:00,71.8,56.1,30.97,NE,43,5.0,6.0,58,-99.99,,,0.00,meteohub,2013-06-27 22:01:00,
2013-06-27 18:06:00,71.8,56.7,30.97,NE,40,6.0,6.0,59,-99.99,,,0.00,meteohub,2013-06-27 22:06:00,
2013-06-27 18:14:00,72.0,57.4,30.97,NNE,24,6.0,6.0,60,-99.99,,,0.00,meteohub,2013-06-27 22:14:00,
2013-06-27 18:19:00,72.1,57.6,31.00,NNE,31,6.0,6.0,60,-99.99,,,0.00,meteohub,2013-06-27 22:19:00,
2013-06-27 18:26:00,72.1,57.6,31.00,NNE,30,5.0,6.0,60,-99.99,,,0.00,meteohub,2013-06-27 22:26:00,
2013-06-27 18:31:00,72.0,57.4,31.00,NE,35,5.0,6.0,60,-99.99,,,0.00,meteohub,2013-06-27 22:31:00,
2013-06-27 18:36:00,72.0,57.4,31.00,NNE,28,6.0,6.0,60,-99.99,,,0.00,meteohub,2013-06-27 22:36:00,
2013-06-27 18:42:00,72.0,57.4,31.00,NNE,33,6.0,6.0,60,-99.99,,,0.00,meteohub,2013-06-27 22:42:00,
2013-06-27 18:47:00,72.0,57.4,31.00,NNE,32,6.0,6.0,60,-99.99,,,0.00,meteohub,2013-06-27 22:47:00,
2013-06-27 18:52:00,71.8,57.2,31.00,NE,39,5.0,7.0,60,-99.99,,,0.00,meteohub,2013-06-27 22:52:00,
2013-06-27 18:57:00,72.0,57.7,31.00,NNE,22,6.0,7.0,61,-99.99,,,0.00,meteohub,2013-06-27 22:57:00,
2013-06-27 19:03:00,71.8,58.1,30.97,NE,46,4.0,7.0,62,-99.99,,,0.00,meteohub,2013-06-27 23:03:00,
2013-06-27 19:08:00,71.8,58.1,30.97,NE,51,4.0,7.0,62,-99.99,,,0.00,meteohub,2013-06-27 23:08:00,
2013-06-27 19:13:00,72.0,58.3,30.97,NE,48,3.0,7.0,62,-99.99,,,0.00,meteohub,2013-06-27 23:13:00,
2013-06-27 19:19:00,72.0,58.3,31.00,NNE,30,3.0,5.0,62,-99.99,,,0.00,meteohub,2013-06-27 23:19:00,
2013-06-27 19:25:00,72.0,58.6,31.00,NE,39,4.0,5.0,63,-99.99,,,0.00,meteohub,2013-06-27 23:25:00,
2013-06-27 19:30:00,72.0,58.6,31.00,NE,53,4.0,5.0,63,-99.99,,,0.00,meteohub,2013-06-27 23:30:00,
2013-06-27 19:35:00,72.0,59.2,31.00,ENE,73,5.0,5.0,64,-99.99,,,0.00,meteohub,2013-06-27 23:35:00,
2013-06-27 19:40:00,71.8,59.0,31.00,East,88,4.0,6.0,64,-99.99,,,0.00,meteohub,2013-06-27 23:40:00,
2013-06-27 19:46:00,72.0,59.5,31.00,ENE,72,3.0,6.0,65,-99.99,,,0.00,meteohub,2013-06-27 23:46:00,
2013-06-27 19:52:00,71.8,59.7,31.00,NE,54,4.0,6.0,66,-99.99,,,0.00,meteohub,2013-06-27 23:52:00,
2013-06-27 19:57:00,71.8,59.7,31.00,NE,43,4.0,6.0,66,-99.99,,,0.00,meteohub,2013-06-27 23:57:00,
2013-06-27 20:02:00,71.6,60.1,31.03,ENE,77,4.0,6.0,67,-99.99,,,0.00,meteohub,2013-06-28 00:02:00,
2013-06-27 20:07:00,71.8,60.3,31.03,ESE,113,5.0,6.0,67,-99.99,,,0.00,meteohub,2013-06-28 00:07:00,
2013-06-27 20:12:00,71.8,60.6,31.03,ESE,103,6.0,6.0,68,-99.99,,,0.00,meteohub,2013-06-28 00:12:00,
2013-06-27 20:17:00,72.0,60.8,31.03,ESE,102,4.0,8.0,68,-99.99,,,0.00,meteohub,2013-06-28 00:17:00,
2013-06-27 20:23:00,72.0,61.2,31.03,ESE,105,8.0,8.0,69,-99.99,,,0.00,meteohub,2013-06-28 00:23:00,
2013-06-27 20:33:00,72.0,61.2,31.03,East,97,3.0,8.0,69,-99.99,,,0.00,meteohub,2013-06-28 00:33:00,
2013-06-27 20:40:00,72.1,62.2,31.03,ESE,112,5.0,8.0,71,-99.99,,,0.00,meteohub,2013-06-28 00:40:00,
2013-06-27 20:46:00,72.3,62.4,31.03,SE,124,6.0,10.0,71,-99.99,,,0.00,meteohub,2013-06-28 00:46:00,
2013-06-27 20:54:00,72.3,63.1,31.03,SE,124,6.0,10.0,73,-99.99,,,0.00,meteohub,2013-06-28 00:54:00,
2013-06-27 21:01:00,72.5,63.7,31.03,ESE,117,7.0,10.0,74,-99.99,,,0.00,meteohub,2013-06-28 01:01:00,
2013-06-27 21:07:00,72.7,64.2,31.03,SE,135,8.0,9.0,75,-99.99,,,0.00,meteohub,2013-06-28 01:07:00,
2013-06-27 21:12:00,72.7,64.8,31.03,SE,129,10.0,10.0,76,-99.99,,,0.00,meteohub,2013-06-28 01:12:00,
2013-06-27 21:18:00,72.7,64.8,31.03,SE,144,8.0,11.0,76,-99.99,,,0.00,meteohub,2013-06-28 01:18:00,
2013-06-27 21:23:00,72.9,64.4,31.03,SE,129,8.0,11.0,75,-99.99,,,0.00,meteohub,2013-06-28 01:23:00,
2013-06-27 21:31:00,72.9,64.0,31.03,ESE,108,5.0,11.0,74,-99.99,,,0.00,meteohub,2013-06-28 01:31:00,
2013-06-27 21:36:00,73.0,64.9,31.03,East,92,9.0,11.0,76,-99.99,,,0.00,meteohub,2013-06-28 01:36:00,
2013-06-27 21:42:00,72.9,64.8,31.03,SE,133,7.0,11.0,76,-99.99,,,0.00,meteohub,2013-06-28 01:42:00,
2013-06-27 21:47:00,72.9,64.4,31.03,ESE,112,8.0,11.0,75,-99.99,,,0.00,meteohub,2013-06-28 01:47:00,
2013-06-27 21:52:00,73.0,64.9,31.03,ESE,123,11.0,11.0,76,-99.99,,,0.00,meteohub,2013-06-28 01:52:00,
2013-06-27 21:57:00,73.2,66.0,31.03,ESE,117,8.0,11.0,78,-99.99,,,0.00,meteohub,2013-06-28 01:57:00,
2013-06-27 22:02:00,73.2,66.4,31.03,SE,139,11.0,11.0,79,-99.99,,,0.00,meteohub,2013-06-28 02:02:00,
2013-06-27 22:10:00,73.2,66.4,31.03,ESE,121,9.0,14.0,79,-99.99,,,0.00,meteohub,2013-06-28 02:10:00,
2013-06-27 22:15:00,73.2,66.7,31.03,ESE,104,9.0,14.0,80,-99.99,,,0.00,meteohub,2013-06-28 02:15:00,
2013-06-27 22:21:00,73.6,67.1,31.03,ESE,120,11.0,13.0,80,-99.99,,,0.00,meteohub,2013-06-28 02:21:00,
2013-06-27 22:26:00,73.6,67.1,31.03,ESE,120,8.0,13.0,80,-99.99,,,0.00,meteohub,2013-06-28 02:26:00,
2013-06-27 22:31:00,73.6,67.1,31.03,ESE,111,8.0,12.0,80,-99.99,,,0.00,meteohub,2013-06-28 02:31:00,
2013-06-27 22:37:00,73.6,67.5,31.03,SE,144,11.0,12.0,81,-99.99,,,0.00,meteohub,2013-06-28 02:37:00,
2013-06-27 22:42:00,73.6,67.1,31.03,ESE,113,10.0,13.0,80,-99.99,,,0.00,meteohub,2013-06-28 02:42:00,
2013-06-27 22:47:00,73.4,66.9,31.03,ESE,122,10.0,13.0,80,-99.99,,,0.00,meteohub,2013-06-28 02:47:00,
2013-06-27 22:52:00,73.4,66.9,31.03,SE,129,10.0,12.0,80,-99.99,,,0.00,meteohub,2013-06-28 02:52:00,
2013-06-27 22:57:00,73.4,66.9,31.03,SSE,160,11.0,12.0,80,-99.99,,,0.00,meteohub,2013-06-28 02:57:00,
2013-06-27 23:02:00,73.4,67.3,31.03,SSE,151,5.0,12.0,81,-99.99,,,0.00,meteohub,2013-06-28 03:02:00,
2013-06-27 23:07:00,73.6,67.5,31.03,SE,130,8.0,13.0,81,-99.99,,,0.00,meteohub,2013-06-28 03:07:00,
2013-06-27 23:12:00,73.6,67.5,31.03,ESE,121,6.0,13.0,81,-99.99,,,0.00,meteohub,2013-06-28 03:12:00,
2013-06-27 23:20:00,73.8,67.6,31.03,SE,144,8.0,11.0,81,-99.99,,,0.00,meteohub,2013-06-28 03:20:00,
2013-06-27 23:25:00,73.8,67.6,31.03,ESE,109,8.0,12.0,81,-99.99,,,0.00,meteohub,2013-06-28 03:25:00,
2013-06-27 23:32:00,74.1,68.0,31.03,SE,126,11.0,12.0,81,-99.99,,,0.00,meteohub,2013-06-28 03:32:00,
2013-06-27 23:37:00,73.9,67.8,31.03,SE,139,4.0,12.0,81,-99.99,,,0.00,meteohub,2013-06-28 03:37:00,
2013-06-27 23:42:00,73.9,67.8,31.03,SSE,150,9.0,11.0,81,-99.99,,,0.00,meteohub,2013-06-28 03:42:00,
2013-06-27 23:47:00,73.9,67.8,31.03,SSE,149,8.0,11.0,81,-99.99,,,0.00,meteohub,2013-06-28 03:47:00,
2013-06-27 23:55:00,73.9,67.8,31.03,ESE,115,6.0,11.0,81,-99.99,,,0.00,meteohub,2013-06-28 03:55:00,